sensor_id;sensor_type;location;lat;lon;timestamp;P1;durP1;ratioP1;P2;durP2;ratioP2
52614;SDS011;38508;53.158;6.614;2023-03-14T00:01:54;22.35;;;3.55;;
52614;SDS011;38508;53.158;6.614;2023-03-14T00:04:20;32.33;;;5.55;;
52614;SDS011;38508;53.158;6.614;2023-03-14T00:06:45;28.40;;;4.43;;
52614;SDS011;38508;53.158;6.614;2023-03-14T00:09:12;29.13;;;4.78;;
52614;SDS011;38508;53.158;6.614;2023-03-14T00:11:38;29.27;;;3.92;;
52614;SDS011;38508;53.158;6.614;2023-03-14T00:14:04;27.52;;;4.88;;
52614;SDS011;38508;53.158;6.614;2023-03-14T00:16:30;28.10;;;4.20;;
52614;SDS011;38508;53.158;6.614;2023-03-14T00:18:55;31.27;;;4.28;;
52614;SDS011;38508;53.158;6.614;2023-03-14T00:21:22;28.27;;;4.05;;
52614;SDS011;38508;53.158;6.614;2023-03-14T00:23:48;29.10;;;3.95;;
52614;SDS011;38508;53.158;6.614;2023-03-14T00:26:15;37.50;;;4.88;;
52614;SDS011;38508;53.158;6.614;2023-03-14T00:28:42;22.73;;;3.80;;
52614;SDS011;38508;53.158;6.614;2023-03-14T00:31:09;32.25;;;4.28;;
52614;SDS011;38508;53.158;6.614;2023-03-14T00:33:36;28.60;;;4.72;;
52614;SDS011;38508;53.158;6.614;2023-03-14T00:36:03;26.17;;;4.63;;
52614;SDS011;38508;53.158;6.614;2023-03-14T00:38:31;28.75;;;4.25;;
52614;SDS011;38508;53.158;6.614;2023-03-14T00:40:57;27.33;;;3.78;;
52614;SDS011;38508;53.158;6.614;2023-03-14T00:43:23;27.13;;;3.90;;
52614;SDS011;38508;53.158;6.614;2023-03-14T00:45:50;19.30;;;4.47;;
52614;SDS011;38508;53.158;6.614;2023-03-14T00:48:17;28.38;;;3.60;;
52614;SDS011;38508;53.158;6.614;2023-03-14T00:50:44;24.35;;;4.45;;
52614;SDS011;38508;53.158;6.614;2023-03-14T00:53:10;22.73;;;3.47;;
52614;SDS011;38508;53.158;6.614;2023-03-14T00:55:40;28.30;;;3.60;;
52614;SDS011;38508;53.158;6.614;2023-03-14T00:58:07;23.38;;;3.75;;
52614;SDS011;38508;53.158;6.614;2023-03-14T01:00:33;30.13;;;4.47;;
52614;SDS011;38508;53.158;6.614;2023-03-14T01:03:00;24.08;;;4.03;;
52614;SDS011;38508;53.158;6.614;2023-03-14T01:05:26;26.08;;;3.80;;
52614;SDS011;38508;53.158;6.614;2023-03-14T01:07:52;34.33;;;4.35;;
52614;SDS011;38508;53.158;6.614;2023-03-14T01:10:18;27.77;;;3.90;;
52614;SDS011;38508;53.158;6.614;2023-03-14T01:12:44;26.75;;;3.85;;
52614;SDS011;38508;53.158;6.614;2023-03-14T01:15:10;22.55;;;3.65;;
52614;SDS011;38508;53.158;6.614;2023-03-14T01:17:35;25.48;;;3.70;;
52614;SDS011;38508;53.158;6.614;2023-03-14T01:20:03;25.20;;;3.50;;
52614;SDS011;38508;53.158;6.614;2023-03-14T01:22:29;27.58;;;3.58;;
52614;SDS011;38508;53.158;6.614;2023-03-14T01:24:55;29.92;;;4.63;;
52614;SDS011;38508;53.158;6.614;2023-03-14T01:27:21;22.42;;;3.28;;
52614;SDS011;38508;53.158;6.614;2023-03-14T01:29:47;23.17;;;3.85;;
52614;SDS011;38508;53.158;6.614;2023-03-14T01:32:13;18.77;;;3.75;;
52614;SDS011;38508;53.158;6.614;2023-03-14T01:34:39;27.75;;;3.47;;
52614;SDS011;38508;53.158;6.614;2023-03-14T01:37:04;26.73;;;3.58;;
52614;SDS011;38508;53.158;6.614;2023-03-14T01:39:32;20.58;;;3.33;;
52614;SDS011;38508;53.158;6.614;2023-03-14T01:41:58;24.23;;;3.90;;
52614;SDS011;38508;53.158;6.614;2023-03-14T01:44:24;18.42;;;3.88;;
52614;SDS011;38508;53.158;6.614;2023-03-14T01:46:50;18.55;;;2.92;;
52614;SDS011;38508;53.158;6.614;2023-03-14T01:52:12;21.50;;;3.13;;
52614;SDS011;38508;53.158;6.614;2023-03-14T01:54:51;19.98;;;3.47;;
52614;SDS011;38508;53.158;6.614;2023-03-14T01:57:22;18.20;;;2.72;;
52614;SDS011;38508;53.158;6.614;2023-03-14T01:59:54;21.02;;;2.88;;
52614;SDS011;38508;53.158;6.614;2023-03-14T02:02:29;24.20;;;2.97;;
52614;SDS011;38508;53.158;6.614;2023-03-14T02:04:55;14.85;;;2.80;;
52614;SDS011;38508;53.158;6.614;2023-03-14T02:07:24;16.13;;;3.03;;
52614;SDS011;38508;53.158;6.614;2023-03-14T02:09:57;24.25;;;3.35;;
52614;SDS011;38508;53.158;6.614;2023-03-14T02:12:26;29.30;;;3.35;;
52614;SDS011;38508;53.158;6.614;2023-03-14T02:14:53;25.50;;;3.65;;
52614;SDS011;38508;53.158;6.614;2023-03-14T02:17:18;19.65;;;2.92;;
52614;SDS011;38508;53.158;6.614;2023-03-14T02:22:30;18.02;;;2.85;;
52614;SDS011;38508;53.158;6.614;2023-03-14T02:24:59;16.25;;;2.38;;
52614;SDS011;38508;53.158;6.614;2023-03-14T02:27:31;20.20;;;2.95;;
52614;SDS011;38508;53.158;6.614;2023-03-14T02:30:00;19.80;;;3.17;;
52614;SDS011;38508;53.158;6.614;2023-03-14T02:32:30;14.00;;;2.72;;
52614;SDS011;38508;53.158;6.614;2023-03-14T02:35:00;21.60;;;2.72;;
52614;SDS011;38508;53.158;6.614;2023-03-14T02:37:38;15.35;;;2.53;;
52614;SDS011;38508;53.158;6.614;2023-03-14T02:40:08;19.02;;;3.15;;
52614;SDS011;38508;53.158;6.614;2023-03-14T02:42:35;15.27;;;3.13;;
52614;SDS011;38508;53.158;6.614;2023-03-14T02:45:25;21.58;;;3.55;;
52614;SDS011;38508;53.158;6.614;2023-03-14T02:47:48;18.05;;;2.42;;
52614;SDS011;38508;53.158;6.614;2023-03-14T02:50:18;16.98;;;2.30;;
52614;SDS011;38508;53.158;6.614;2023-03-14T02:52:46;14.75;;;2.40;;
52614;SDS011;38508;53.158;6.614;2023-03-14T02:55:12;14.55;;;2.65;;
52614;SDS011;38508;53.158;6.614;2023-03-14T02:57:38;13.82;;;2.50;;
52614;SDS011;38508;53.158;6.614;2023-03-14T03:00:04;9.20;;;2.40;;
52614;SDS011;38508;53.158;6.614;2023-03-14T03:02:30;11.50;;;1.92;;
52614;SDS011;38508;53.158;6.614;2023-03-14T03:04:56;15.40;;;2.50;;
52614;SDS011;38508;53.158;6.614;2023-03-14T03:07:23;17.17;;;3.47;;
52614;SDS011;38508;53.158;6.614;2023-03-14T03:09:49;13.93;;;2.60;;
52614;SDS011;38508;53.158;6.614;2023-03-14T03:12:14;13.23;;;3.13;;
52614;SDS011;38508;53.158;6.614;2023-03-14T03:14:40;14.65;;;2.95;;
52614;SDS011;38508;53.158;6.614;2023-03-14T03:17:06;15.93;;;2.70;;
52614;SDS011;38508;53.158;6.614;2023-03-14T03:19:33;11.57;;;2.63;;
52614;SDS011;38508;53.158;6.614;2023-03-14T03:21:59;12.95;;;2.63;;
52614;SDS011;38508;53.158;6.614;2023-03-14T03:24:25;17.35;;;3.15;;
52614;SDS011;38508;53.158;6.614;2023-03-14T03:26:51;16.48;;;4.65;;
52614;SDS011;38508;53.158;6.614;2023-03-14T03:29:17;18.25;;;4.13;;
52614;SDS011;38508;53.158;6.614;2023-03-14T03:31:44;24.77;;;4.60;;
52614;SDS011;38508;53.158;6.614;2023-03-14T03:34:11;18.48;;;5.00;;
52614;SDS011;38508;53.158;6.614;2023-03-14T03:36:37;22.88;;;5.40;;
52614;SDS011;38508;53.158;6.614;2023-03-14T03:39:04;21.83;;;5.70;;
52614;SDS011;38508;53.158;6.614;2023-03-14T03:41:30;20.70;;;6.18;;
52614;SDS011;38508;53.158;6.614;2023-03-14T03:43:56;15.57;;;6.13;;
52614;SDS011;38508;53.158;6.614;2023-03-14T03:46:21;17.02;;;6.05;;
52614;SDS011;38508;53.158;6.614;2023-03-14T03:48:47;19.25;;;6.70;;
52614;SDS011;38508;53.158;6.614;2023-03-14T03:51:14;14.82;;;7.20;;
52614;SDS011;38508;53.158;6.614;2023-03-14T03:53:41;21.80;;;7.88;;
52614;SDS011;38508;53.158;6.614;2023-03-14T03:56:07;19.38;;;7.43;;
52614;SDS011;38508;53.158;6.614;2023-03-14T03:58:34;27.48;;;8.40;;
52614;SDS011;38508;53.158;6.614;2023-03-14T04:01:00;24.80;;;8.55;;
52614;SDS011;38508;53.158;6.614;2023-03-14T04:03:26;27.33;;;8.68;;
52614;SDS011;38508;53.158;6.614;2023-03-14T04:05:58;28.65;;;8.77;;
52614;SDS011;38508;53.158;6.614;2023-03-14T04:08:25;28.33;;;9.45;;
52614;SDS011;38508;53.158;6.614;2023-03-14T04:10:54;26.50;;;9.00;;
52614;SDS011;38508;53.158;6.614;2023-03-14T04:13:21;29.77;;;9.75;;
52614;SDS011;38508;53.158;6.614;2023-03-14T04:15:46;26.67;;;9.93;;
52614;SDS011;38508;53.158;6.614;2023-03-14T04:18:12;25.90;;;9.80;;
52614;SDS011;38508;53.158;6.614;2023-03-14T04:20:38;24.85;;;9.10;;
52614;SDS011;38508;53.158;6.614;2023-03-14T04:23:03;26.27;;;10.23;;
52614;SDS011;38508;53.158;6.614;2023-03-14T04:25:29;35.05;;;9.50;;
52614;SDS011;38508;53.158;6.614;2023-03-14T04:27:55;27.25;;;9.10;;
52614;SDS011;38508;53.158;6.614;2023-03-14T04:30:20;25.90;;;10.00;;
52614;SDS011;38508;53.158;6.614;2023-03-14T04:32:47;27.65;;;9.85;;
52614;SDS011;38508;53.158;6.614;2023-03-14T04:35:12;26.70;;;10.45;;
52614;SDS011;38508;53.158;6.614;2023-03-14T04:37:38;23.23;;;9.77;;
52614;SDS011;38508;53.158;6.614;2023-03-14T04:40:05;27.23;;;11.20;;
52614;SDS011;38508;53.158;6.614;2023-03-14T04:42:31;24.17;;;11.32;;
52614;SDS011;38508;53.158;6.614;2023-03-14T04:44:57;31.30;;;11.02;;
52614;SDS011;38508;53.158;6.614;2023-03-14T04:47:23;23.25;;;11.30;;
52614;SDS011;38508;53.158;6.614;2023-03-14T04:49:48;20.88;;;10.25;;
52614;SDS011;38508;53.158;6.614;2023-03-14T04:52:14;22.45;;;10.80;;
52614;SDS011;38508;53.158;6.614;2023-03-14T04:54:40;23.05;;;11.85;;
52614;SDS011;38508;53.158;6.614;2023-03-14T04:57:05;26.10;;;11.48;;
52614;SDS011;38508;53.158;6.614;2023-03-14T04:59:31;26.02;;;10.57;;
52614;SDS011;38508;53.158;6.614;2023-03-14T05:01:57;20.90;;;10.27;;
52614;SDS011;38508;53.158;6.614;2023-03-14T05:04:22;26.02;;;10.35;;
52614;SDS011;38508;53.158;6.614;2023-03-14T05:06:48;23.23;;;10.18;;
52614;SDS011;38508;53.158;6.614;2023-03-14T05:09:14;24.50;;;9.50;;
52614;SDS011;38508;53.158;6.614;2023-03-14T05:11:40;26.00;;;9.73;;
52614;SDS011;38508;53.158;6.614;2023-03-14T05:14:06;26.40;;;9.60;;
52614;SDS011;38508;53.158;6.614;2023-03-14T05:16:32;24.00;;;9.75;;
52614;SDS011;38508;53.158;6.614;2023-03-14T05:18:57;19.35;;;10.20;;
52614;SDS011;38508;53.158;6.614;2023-03-14T05:21:23;21.80;;;10.35;;
52614;SDS011;38508;53.158;6.614;2023-03-14T05:23:49;31.42;;;11.45;;
52614;SDS011;38508;53.158;6.614;2023-03-14T05:26:14;24.73;;;11.45;;
52614;SDS011;38508;53.158;6.614;2023-03-14T05:28:42;26.23;;;11.55;;
52614;SDS011;38508;53.158;6.614;2023-03-14T05:31:08;32.78;;;11.73;;
52614;SDS011;38508;53.158;6.614;2023-03-14T05:33:34;33.08;;;12.65;;
52614;SDS011;38508;53.158;6.614;2023-03-14T05:35:59;33.47;;;12.95;;
52614;SDS011;38508;53.158;6.614;2023-03-14T05:38:25;32.58;;;12.80;;
52614;SDS011;38508;53.158;6.614;2023-03-14T05:40:51;29.60;;;11.60;;
52614;SDS011;38508;53.158;6.614;2023-03-14T05:43:16;27.42;;;12.55;;
52614;SDS011;38508;53.158;6.614;2023-03-14T05:45:42;29.70;;;12.93;;
52614;SDS011;38508;53.158;6.614;2023-03-14T05:48:08;27.75;;;12.98;;
52614;SDS011;38508;53.158;6.614;2023-03-14T05:50:34;30.98;;;11.45;;
52614;SDS011;38508;53.158;6.614;2023-03-14T05:53:00;29.13;;;11.88;;
52614;SDS011;38508;53.158;6.614;2023-03-14T05:55:26;31.55;;;12.02;;
52614;SDS011;38508;53.158;6.614;2023-03-14T05:57:52;19.48;;;10.85;;
52614;SDS011;38508;53.158;6.614;2023-03-14T06:00:18;27.92;;;12.32;;
52614;SDS011;38508;53.158;6.614;2023-03-14T06:02:44;29.25;;;12.90;;
52614;SDS011;38508;53.158;6.614;2023-03-14T06:05:10;34.85;;;14.52;;
52614;SDS011;38508;53.158;6.614;2023-03-14T06:07:36;26.13;;;12.43;;
52614;SDS011;38508;53.158;6.614;2023-03-14T06:10:02;26.95;;;12.15;;
52614;SDS011;38508;53.158;6.614;2023-03-14T06:12:28;17.95;;;9.48;;
52614;SDS011;38508;53.158;6.614;2023-03-14T06:14:54;18.13;;;10.35;;
52614;SDS011;38508;53.158;6.614;2023-03-14T06:17:20;22.27;;;11.48;;
52614;SDS011;38508;53.158;6.614;2023-03-14T06:19:45;27.17;;;11.65;;
52614;SDS011;38508;53.158;6.614;2023-03-14T06:22:11;22.52;;;11.38;;
52614;SDS011;38508;53.158;6.614;2023-03-14T06:24:37;23.60;;;10.27;;
52614;SDS011;38508;53.158;6.614;2023-03-14T06:27:02;27.70;;;11.23;;
52614;SDS011;38508;53.158;6.614;2023-03-14T06:29:29;24.25;;;11.63;;
52614;SDS011;38508;53.158;6.614;2023-03-14T06:31:55;21.00;;;10.38;;
52614;SDS011;38508;53.158;6.614;2023-03-14T06:34:20;21.50;;;10.90;;
52614;SDS011;38508;53.158;6.614;2023-03-14T06:36:46;23.58;;;10.23;;
52614;SDS011;38508;53.158;6.614;2023-03-14T06:39:12;18.10;;;8.27;;
52614;SDS011;38508;53.158;6.614;2023-03-14T06:41:37;10.63;;;3.80;;
52614;SDS011;38508;53.158;6.614;2023-03-14T06:44:04;9.82;;;3.25;;
52614;SDS011;38508;53.158;6.614;2023-03-14T06:46:29;8.13;;;2.97;;
52614;SDS011;38508;53.158;6.614;2023-03-14T06:48:55;7.22;;;2.42;;
52614;SDS011;38508;53.158;6.614;2023-03-14T06:51:21;14.15;;;2.80;;
52614;SDS011;38508;53.158;6.614;2023-03-14T06:53:47;12.95;;;2.55;;
52614;SDS011;38508;53.158;6.614;2023-03-14T06:56:12;12.52;;;3.03;;
52614;SDS011;38508;53.158;6.614;2023-03-14T06:58:38;20.75;;;3.45;;
52614;SDS011;38508;53.158;6.614;2023-03-14T07:01:04;20.10;;;2.80;;
52614;SDS011;38508;53.158;6.614;2023-03-14T07:03:30;27.27;;;3.40;;
52614;SDS011;38508;53.158;6.614;2023-03-14T07:05:56;22.98;;;3.47;;
52614;SDS011;38508;53.158;6.614;2023-03-14T07:08:22;17.38;;;2.85;;
52614;SDS011;38508;53.158;6.614;2023-03-14T07:10:48;44.60;;;4.00;;
52614;SDS011;38508;53.158;6.614;2023-03-14T07:13:13;19.70;;;2.95;;
52614;SDS011;38508;53.158;6.614;2023-03-14T07:15:39;19.83;;;2.10;;
52614;SDS011;38508;53.158;6.614;2023-03-14T07:18:05;21.02;;;2.35;;
52614;SDS011;38508;53.158;6.614;2023-03-14T07:20:30;12.40;;;2.15;;
52614;SDS011;38508;53.158;6.614;2023-03-14T07:22:57;16.35;;;1.73;;
52614;SDS011;38508;53.158;6.614;2023-03-14T07:25:24;18.42;;;1.77;;
52614;SDS011;38508;53.158;6.614;2023-03-14T07:27:51;16.02;;;1.77;;
52614;SDS011;38508;53.158;6.614;2023-03-14T07:30:16;11.35;;;1.55;;
52614;SDS011;38508;53.158;6.614;2023-03-14T07:32:42;7.38;;;1.30;;
52614;SDS011;38508;53.158;6.614;2023-03-14T07:35:08;12.18;;;1.38;;
52614;SDS011;38508;53.158;6.614;2023-03-14T07:37:34;9.82;;;1.17;;
52614;SDS011;38508;53.158;6.614;2023-03-14T07:40:00;8.82;;;0.82;;
52614;SDS011;38508;53.158;6.614;2023-03-14T07:42:25;7.88;;;0.70;;
52614;SDS011;38508;53.158;6.614;2023-03-14T07:44:51;7.97;;;0.60;;
52614;SDS011;38508;53.158;6.614;2023-03-14T07:47:17;8.35;;;1.20;;
52614;SDS011;38508;53.158;6.614;2023-03-14T07:49:42;6.47;;;0.70;;
52614;SDS011;38508;53.158;6.614;2023-03-14T07:52:08;7.50;;;0.70;;
52614;SDS011;38508;53.158;6.614;2023-03-14T07:54:34;6.07;;;0.52;;
52614;SDS011;38508;53.158;6.614;2023-03-14T07:56:59;7.03;;;1.00;;
52614;SDS011;38508;53.158;6.614;2023-03-14T07:59:26;1.98;;;0.50;;
52614;SDS011;38508;53.158;6.614;2023-03-14T08:01:52;7.45;;;0.85;;
52614;SDS011;38508;53.158;6.614;2023-03-14T08:04:18;2.67;;;0.70;;
52614;SDS011;38508;53.158;6.614;2023-03-14T08:06:43;7.47;;;0.80;;
52614;SDS011;38508;53.158;6.614;2023-03-14T08:09:09;3.35;;;0.40;;
52614;SDS011;38508;53.158;6.614;2023-03-14T08:11:35;6.57;;;0.77;;
52614;SDS011;38508;53.158;6.614;2023-03-14T08:14:01;3.15;;;0.52;;
52614;SDS011;38508;53.158;6.614;2023-03-14T08:16:27;8.60;;;0.80;;
52614;SDS011;38508;53.158;6.614;2023-03-14T08:18:52;8.30;;;0.80;;
52614;SDS011;38508;53.158;6.614;2023-03-14T08:21:18;4.20;;;0.80;;
52614;SDS011;38508;53.158;6.614;2023-03-14T08:23:44;8.73;;;1.00;;
52614;SDS011;38508;53.158;6.614;2023-03-14T08:26:09;10.30;;;1.02;;
52614;SDS011;38508;53.158;6.614;2023-03-14T08:28:35;6.07;;;1.15;;
52614;SDS011;38508;53.158;6.614;2023-03-14T08:31:01;7.20;;;1.08;;
52614;SDS011;38508;53.158;6.614;2023-03-14T08:33:28;6.57;;;0.70;;
52614;SDS011;38508;53.158;6.614;2023-03-14T08:35:54;6.22;;;1.20;;
52614;SDS011;38508;53.158;6.614;2023-03-14T08:38:21;7.97;;;0.77;;
52614;SDS011;38508;53.158;6.614;2023-03-14T08:40:47;7.20;;;0.80;;
52614;SDS011;38508;53.158;6.614;2023-03-14T08:43:14;12.40;;;1.23;;
52614;SDS011;38508;53.158;6.614;2023-03-14T08:45:40;12.77;;;1.10;;
52614;SDS011;38508;53.158;6.614;2023-03-14T08:48:05;14.52;;;1.85;;
52614;SDS011;38508;53.158;6.614;2023-03-14T08:50:31;7.40;;;1.27;;
52614;SDS011;38508;53.158;6.614;2023-03-14T08:52:57;16.27;;;1.63;;
52614;SDS011;38508;53.158;6.614;2023-03-14T08:55:25;10.55;;;1.30;;
52614;SDS011;38508;53.158;6.614;2023-03-14T08:57:52;19.75;;;2.00;;
52614;SDS011;38508;53.158;6.614;2023-03-14T09:00:18;17.10;;;1.70;;
52614;SDS011;38508;53.158;6.614;2023-03-14T09:02:44;21.13;;;1.80;;
52614;SDS011;38508;53.158;6.614;2023-03-14T09:05:10;14.73;;;1.90;;
52614;SDS011;38508;53.158;6.614;2023-03-14T09:07:37;16.75;;;2.45;;
52614;SDS011;38508;53.158;6.614;2023-03-14T09:10:03;25.98;;;3.05;;
52614;SDS011;38508;53.158;6.614;2023-03-14T09:12:29;15.52;;;2.28;;
52614;SDS011;38508;53.158;6.614;2023-03-14T09:14:55;24.55;;;2.35;;
52614;SDS011;38508;53.158;6.614;2023-03-14T09:17:21;26.98;;;2.75;;
52614;SDS011;38508;53.158;6.614;2023-03-14T09:19:47;17.85;;;2.20;;
52614;SDS011;38508;53.158;6.614;2023-03-14T09:22:12;22.58;;;2.10;;
52614;SDS011;38508;53.158;6.614;2023-03-14T09:24:39;20.17;;;2.42;;
52614;SDS011;38508;53.158;6.614;2023-03-14T09:27:05;23.83;;;2.75;;
52614;SDS011;38508;53.158;6.614;2023-03-14T09:29:32;23.88;;;2.63;;
52614;SDS011;38508;53.158;6.614;2023-03-14T09:31:58;24.85;;;2.45;;
52614;SDS011;38508;53.158;6.614;2023-03-14T09:34:24;22.85;;;2.90;;
52614;SDS011;38508;53.158;6.614;2023-03-14T09:36:50;20.90;;;2.72;;
52614;SDS011;38508;53.158;6.614;2023-03-14T09:39:16;21.10;;;2.80;;
52614;SDS011;38508;53.158;6.614;2023-03-14T09:41:43;22.50;;;2.65;;
52614;SDS011;38508;53.158;6.614;2023-03-14T09:44:15;28.10;;;3.50;;
52614;SDS011;38508;53.158;6.614;2023-03-14T09:46:46;21.63;;;2.65;;
52614;SDS011;38508;53.158;6.614;2023-03-14T09:49:21;18.35;;;2.40;;
52614;SDS011;38508;53.158;6.614;2023-03-14T09:51:53;17.40;;;1.65;;
52614;SDS011;38508;53.158;6.614;2023-03-14T09:55:04;25.52;;;3.20;;
52614;SDS011;38508;53.158;6.614;2023-03-14T09:57:16;18.95;;;2.22;;
52614;SDS011;38508;53.158;6.614;2023-03-14T09:59:44;21.63;;;2.28;;
52614;SDS011;38508;53.158;6.614;2023-03-14T10:02:13;22.08;;;2.70;;
52614;SDS011;38508;53.158;6.614;2023-03-14T10:04:43;23.13;;;2.80;;
52614;SDS011;38508;53.158;6.614;2023-03-14T10:07:17;24.77;;;3.20;;
52614;SDS011;38508;53.158;6.614;2023-03-14T10:09:50;22.98;;;2.42;;
52614;SDS011;38508;53.158;6.614;2023-03-14T10:12:17;25.35;;;2.30;;
52614;SDS011;38508;53.158;6.614;2023-03-14T10:14:45;26.42;;;2.60;;
52614;SDS011;38508;53.158;6.614;2023-03-14T10:17:17;20.95;;;2.60;;
52614;SDS011;38508;53.158;6.614;2023-03-14T10:20:25;26.65;;;2.92;;
52614;SDS011;38508;53.158;6.614;2023-03-14T10:22:52;25.80;;;2.72;;
52614;SDS011;38508;53.158;6.614;2023-03-14T10:25:29;17.98;;;1.95;;
52614;SDS011;38508;53.158;6.614;2023-03-14T10:27:57;27.85;;;2.90;;
52614;SDS011;38508;53.158;6.614;2023-03-14T10:30:27;21.83;;;2.88;;
52614;SDS011;38508;53.158;6.614;2023-03-14T10:33:19;23.05;;;2.83;;
52614;SDS011;38508;53.158;6.614;2023-03-14T10:36:06;21.25;;;2.35;;
52614;SDS011;38508;53.158;6.614;2023-03-14T10:38:42;17.23;;;1.73;;
52614;SDS011;38508;53.158;6.614;2023-03-14T10:41:43;15.88;;;2.00;;
52614;SDS011;38508;53.158;6.614;2023-03-14T10:44:00;15.45;;;2.00;;
52614;SDS011;38508;53.158;6.614;2023-03-14T10:46:29;14.43;;;1.95;;
52614;SDS011;38508;53.158;6.614;2023-03-14T10:48:58;17.13;;;2.03;;
52614;SDS011;38508;53.158;6.614;2023-03-14T10:51:27;16.33;;;1.88;;
52614;SDS011;38508;53.158;6.614;2023-03-14T10:56:39;15.38;;;1.70;;
52614;SDS011;38508;53.158;6.614;2023-03-14T10:59:11;17.98;;;1.67;;
52614;SDS011;38508;53.158;6.614;2023-03-14T11:01:52;14.68;;;2.10;;
52614;SDS011;38508;53.158;6.614;2023-03-14T11:15:36;8.30;;;1.88;;
52614;SDS011;38508;53.158;6.614;2023-03-14T11:32:08;10.90;;;1.05;;
52614;SDS011;38508;53.158;6.614;2023-03-14T11:37:29;7.25;;;0.80;;
52614;SDS011;38508;53.158;6.614;2023-03-14T11:42:36;11.57;;;1.00;;
52614;SDS011;38508;53.158;6.614;2023-03-14T11:45:12;7.30;;;1.15;;
52614;SDS011;38508;53.158;6.614;2023-03-14T11:47:45;9.23;;;1.20;;
52614;SDS011;38508;53.158;6.614;2023-03-14T11:50:32;10.20;;;0.90;;
52614;SDS011;38508;53.158;6.614;2023-03-14T11:53:09;6.13;;;0.82;;
52614;SDS011;38508;53.158;6.614;2023-03-14T11:55:41;8.90;;;0.75;;
52614;SDS011;38508;53.158;6.614;2023-03-14T11:58:29;14.45;;;0.95;;
52614;SDS011;38508;53.158;6.614;2023-03-14T12:00:56;13.02;;;1.42;;
52614;SDS011;38508;53.158;6.614;2023-03-14T12:06:21;7.28;;;0.80;;
52614;SDS011;38508;53.158;6.614;2023-03-14T12:09:03;4.80;;;1.15;;
52614;SDS011;38508;53.158;6.614;2023-03-14T12:11:41;4.85;;;0.88;;
52614;SDS011;38508;53.158;6.614;2023-03-14T12:16:55;9.20;;;1.00;;
52614;SDS011;38508;53.158;6.614;2023-03-14T12:19:41;8.63;;;0.90;;
52614;SDS011;38508;53.158;6.614;2023-03-14T12:24:36;8.95;;;1.05;;
52614;SDS011;38508;53.158;6.614;2023-03-14T12:27:05;7.15;;;1.08;;
52614;SDS011;38508;53.158;6.614;2023-03-14T12:29:34;16.80;;;1.52;;
52614;SDS011;38508;53.158;6.614;2023-03-14T12:32:23;9.85;;;1.75;;
52614;SDS011;38508;53.158;6.614;2023-03-14T12:34:50;11.63;;;2.03;;
52614;SDS011;38508;53.158;6.614;2023-03-14T12:40:15;18.58;;;2.17;;
52614;SDS011;38508;53.158;6.614;2023-03-14T12:43:02;11.23;;;1.85;;
52614;SDS011;38508;53.158;6.614;2023-03-14T12:45:43;16.17;;;2.10;;
52614;SDS011;38508;53.158;6.614;2023-03-14T12:48:33;10.15;;;2.20;;
52614;SDS011;38508;53.158;6.614;2023-03-14T12:51:02;20.55;;;2.10;;
52614;SDS011;38508;53.158;6.614;2023-03-14T12:56:45;16.13;;;2.00;;
52614;SDS011;38508;53.158;6.614;2023-03-14T12:59:21;16.15;;;1.58;;
52614;SDS011;38508;53.158;6.614;2023-03-14T13:01:56;15.55;;;1.60;;
52614;SDS011;38508;53.158;6.614;2023-03-14T13:04:27;11.93;;;1.52;;
52614;SDS011;38508;53.158;6.614;2023-03-14T13:11:51;11.55;;;1.50;;
52614;SDS011;38508;53.158;6.614;2023-03-14T13:14:19;11.63;;;1.30;;
52614;SDS011;38508;53.158;6.614;2023-03-14T13:16:46;9.95;;;0.85;;
52614;SDS011;38508;53.158;6.614;2023-03-14T13:19:17;7.65;;;1.30;;
52614;SDS011;38508;53.158;6.614;2023-03-14T13:21:48;8.18;;;0.80;;
52614;SDS011;38508;53.158;6.614;2023-03-14T13:24:22;7.65;;;0.80;;
52614;SDS011;38508;53.158;6.614;2023-03-14T13:26:51;15.00;;;1.58;;
52614;SDS011;38508;53.158;6.614;2023-03-14T13:29:19;8.02;;;1.02;;
52614;SDS011;38508;53.158;6.614;2023-03-14T13:31:48;8.88;;;1.30;;
52614;SDS011;38508;53.158;6.614;2023-03-14T13:34:15;8.15;;;0.80;;
52614;SDS011;38508;53.158;6.614;2023-03-14T13:36:42;11.10;;;1.85;;
52614;SDS011;38508;53.158;6.614;2023-03-14T13:39:17;11.35;;;1.00;;
52614;SDS011;38508;53.158;6.614;2023-03-14T13:41:44;8.98;;;0.70;;
52614;SDS011;38508;53.158;6.614;2023-03-14T13:44:30;7.18;;;0.80;;
52614;SDS011;38508;53.158;6.614;2023-03-14T13:47:01;8.80;;;0.82;;
52614;SDS011;38508;53.158;6.614;2023-03-14T13:49:29;7.55;;;0.90;;
52614;SDS011;38508;53.158;6.614;2023-03-14T13:51:59;11.38;;;1.13;;
52614;SDS011;38508;53.158;6.614;2023-03-14T13:54:26;11.02;;;1.23;;
52614;SDS011;38508;53.158;6.614;2023-03-14T13:56:59;10.27;;;1.27;;
52614;SDS011;38508;53.158;6.614;2023-03-14T13:59:30;8.70;;;0.98;;
52614;SDS011;38508;53.158;6.614;2023-03-14T14:01:58;14.30;;;1.50;;
52614;SDS011;38508;53.158;6.614;2023-03-14T14:04:28;8.27;;;0.82;;
52614;SDS011;38508;53.158;6.614;2023-03-14T14:06:58;6.35;;;1.02;;
52614;SDS011;38508;53.158;6.614;2023-03-14T14:09:25;11.35;;;0.93;;
52614;SDS011;38508;53.158;6.614;2023-03-14T14:14:34;12.43;;;1.60;;
52614;SDS011;38508;53.158;6.614;2023-03-14T14:17:05;12.43;;;1.20;;
52614;SDS011;38508;53.158;6.614;2023-03-14T14:19:33;9.02;;;1.20;;
52614;SDS011;38508;53.158;6.614;2023-03-14T14:22:00;7.25;;;0.95;;
52614;SDS011;38508;53.158;6.614;2023-03-14T14:24:28;5.45;;;1.05;;
52614;SDS011;38508;53.158;6.614;2023-03-14T14:27:12;6.70;;;0.85;;
52614;SDS011;38508;53.158;6.614;2023-03-14T14:29:40;5.57;;;0.70;;
52614;SDS011;38508;53.158;6.614;2023-03-14T14:34:42;10.25;;;1.10;;
52614;SDS011;38508;53.158;6.614;2023-03-14T14:37:33;9.15;;;1.00;;
52614;SDS011;38508;53.158;6.614;2023-03-14T14:40:07;11.13;;;1.30;;
52614;SDS011;38508;53.158;6.614;2023-03-14T14:42:34;21.67;;;1.50;;
52614;SDS011;38508;53.158;6.614;2023-03-14T14:45:04;16.23;;;1.73;;
52614;SDS011;38508;53.158;6.614;2023-03-14T14:47:36;14.20;;;1.45;;
52614;SDS011;38508;53.158;6.614;2023-03-14T14:51:01;7.00;;;0.82;;
52614;SDS011;38508;53.158;6.614;2023-03-14T14:55:49;10.63;;;1.35;;
52614;SDS011;38508;53.158;6.614;2023-03-14T15:03:45;9.27;;;1.05;;
52614;SDS011;38508;53.158;6.614;2023-03-14T15:06:14;18.60;;;2.53;;
52614;SDS011;38508;53.158;6.614;2023-03-14T15:08:45;6.82;;;1.00;;
52614;SDS011;38508;53.158;6.614;2023-03-14T15:11:19;8.57;;;0.70;;
52614;SDS011;38508;53.158;6.614;2023-03-14T15:13:49;5.53;;;0.85;;
52614;SDS011;38508;53.158;6.614;2023-03-14T15:16:17;8.48;;;0.95;;
52614;SDS011;38508;53.158;6.614;2023-03-14T15:18:47;8.13;;;1.05;;
52614;SDS011;38508;53.158;6.614;2023-03-14T15:21:18;13.48;;;1.20;;
52614;SDS011;38508;53.158;6.614;2023-03-14T15:23:43;9.20;;;1.00;;
52614;SDS011;38508;53.158;6.614;2023-03-14T15:26:16;10.55;;;1.27;;
52614;SDS011;38508;53.158;6.614;2023-03-14T15:28:44;6.57;;;0.70;;
52614;SDS011;38508;53.158;6.614;2023-03-14T15:31:12;6.80;;;1.00;;
52614;SDS011;38508;53.158;6.614;2023-03-14T15:33:38;12.88;;;1.20;;
52614;SDS011;38508;53.158;6.614;2023-03-14T15:36:06;9.82;;;1.25;;
52614;SDS011;38508;53.158;6.614;2023-03-14T15:38:41;9.45;;;1.20;;
52614;SDS011;38508;53.158;6.614;2023-03-14T15:41:07;12.55;;;1.20;;
52614;SDS011;38508;53.158;6.614;2023-03-14T15:43:34;10.73;;;1.00;;
52614;SDS011;38508;53.158;6.614;2023-03-14T15:46:00;12.45;;;1.20;;
52614;SDS011;38508;53.158;6.614;2023-03-14T15:48:26;13.45;;;1.02;;
52614;SDS011;38508;53.158;6.614;2023-03-14T15:50:51;7.00;;;1.30;;
52614;SDS011;38508;53.158;6.614;2023-03-14T15:53:17;9.40;;;1.15;;
52614;SDS011;38508;53.158;6.614;2023-03-14T15:55:43;11.98;;;1.02;;